createdAt,value
2023-01-05T00:01:03.023Z,100364.66
2023-01-05T00:03:30.769Z,100353.00
2023-01-05T00:06:02.099Z,100364.66
2023-01-05T00:08:36.746Z,100360.53
2023-01-05T00:11:23.220Z,100366.31
2023-01-05T00:14:08.578Z,100363.00
2023-01-05T00:16:53.870Z,100363.00
2023-01-05T00:19:39.235Z,100359.06
2023-01-05T00:22:34.631Z,100373.00
2023-01-05T00:25:12.119Z,100374.06
2023-01-05T00:27:41.660Z,100369.25
2023-01-05T00:30:10.571Z,100373.19
2023-01-05T00:32:38.491Z,100361.78
2023-01-05T00:35:06.466Z,100370.72
2023-01-05T00:37:36.204Z,100361.34
2023-01-05T00:40:06.229Z,100368.66
2023-01-05T00:42:33.889Z,100372.38
2023-01-05T00:45:01.594Z,100372.38
2023-01-05T00:47:29.193Z,100375.47
2023-01-05T00:49:56.847Z,100371.94
2023-01-05T00:52:24.382Z,100380.06
2023-01-05T00:54:52.198Z,100381.72
2023-01-05T00:57:21.177Z,100397.56
2023-01-05T00:59:48.776Z,100389.44
2023-01-05T01:02:16.877Z,100384.66
2023-01-05T01:04:44.602Z,100383.00
2023-01-05T01:07:12.186Z,100400.69
2023-01-05T01:09:41.292Z,100389.66
2023-01-05T01:12:09.061Z,100398.59
2023-01-05T01:14:39.253Z,100392.13
2023-01-05T01:17:06.917Z,100387.97
2023-01-05T01:19:34.733Z,100394.25
2023-01-05T01:22:02.616Z,100396.31
2023-01-05T01:24:30.553Z,100404.22
2023-01-05T01:26:58.198Z,100406.94
2023-01-05T01:29:25.780Z,100410.06
2023-01-05T01:31:54.889Z,100406.94
2023-01-05T01:34:23.276Z,100409.41
2023-01-05T01:36:51.084Z,100404.22
2023-01-05T01:39:18.681Z,100411.09
2023-01-05T01:41:46.438Z,100426.91
2023-01-05T01:44:47.831Z,100440.44
2023-01-05T01:47:21.986Z,100423.16
2023-01-05T01:49:50.324Z,100415.69
2023-01-05T01:52:18.627Z,100419.66
2023-01-05T01:54:47.080Z,100418.41
2023-01-05T01:57:16.089Z,100420.47
2023-01-05T01:59:44.332Z,100434.22
2023-01-05T02:02:14.531Z,100437.97
2023-01-05T02:04:45.611Z,100434.22
2023-01-05T02:07:16.051Z,100440.66
2023-01-05T02:09:44.788Z,100437.13
2023-01-05T02:12:26.100Z,100438.78
2023-01-05T02:15:01.711Z,100432.31
2023-01-05T02:17:39.431Z,100435.25
2023-01-05T02:20:40.338Z,100436.66
2023-01-05T02:23:40.062Z,100434.63
2023-01-05T02:26:40.080Z,100446.03
2023-01-05T02:29:43.861Z,100438.72
2023-01-05T02:32:18.168Z,100441.84
2023-01-05T02:34:53.533Z,100458.72
2023-01-05T02:37:29.065Z,100455.34
2023-01-05T02:40:01.140Z,100451.94
2023-01-05T02:42:32.866Z,100434.91
2023-01-05T02:45:02.733Z,100451.53
2023-01-05T02:47:39.498Z,100438.03
2023-01-05T02:50:12.475Z,100453.41
2023-01-05T02:52:44.509Z,100462.75
2023-01-05T02:55:16.646Z,100447.59
2023-01-05T02:57:53.709Z,100448.16
2023-01-05T03:00:26.311Z,100445.88
2023-01-05T03:02:59.210Z,100455.44
2023-01-05T03:05:32.840Z,100461.88
2023-01-05T03:08:07.868Z,100471.25
2023-01-05T03:10:58.968Z,100473.75
2023-01-05T03:13:50.586Z,100475.03
2023-01-05T03:16:23.809Z,100464.63
2023-01-05T03:19:13.244Z,100472.53
2023-01-05T03:21:59.496Z,100478.56
2023-01-05T03:24:44.812Z,100473.50
2023-01-05T03:27:31.790Z,100479.59
2023-01-05T03:30:16.980Z,100471.44
2023-01-05T03:33:07.346Z,100478.81
2023-01-05T03:35:41.805Z,100473.31
2023-01-05T03:38:18.382Z,100478.13
2023-01-05T03:40:47.309Z,100489.53
2023-01-05T03:43:15.403Z,100481.19
2023-01-05T03:45:45.275Z,100483.50
2023-01-05T03:48:12.926Z,100486.81
2023-01-05T03:50:41.840Z,100492.47
2023-01-05T03:53:09.423Z,100493.13
2023-01-05T03:55:37.017Z,100496.41
2023-01-05T03:58:04.645Z,100489.34
2023-01-05T04:00:33.371Z,100494.31
2023-01-05T04:03:03.228Z,100501.63
2023-01-05T04:05:30.944Z,100505.72
2023-01-05T04:08:00.172Z,100506.13
2023-01-05T04:10:27.822Z,100504.25
2023-01-05T04:12:55.533Z,100512.56
2023-01-05T04:15:23.194Z,100509.66
2023-01-05T04:17:50.794Z,100507.63
2023-01-05T04:20:19.366Z,100510.78
2023-01-05T04:22:47.050Z,100504.53
2023-01-05T04:25:16.150Z,100509.66
2023-01-05T04:27:43.749Z,100520.88
2023-01-05T04:30:11.936Z,100532.50
2023-01-05T04:32:39.540Z,100527.09
2023-01-05T04:35:11.230Z,100533.16
2023-01-05T04:37:39.808Z,100533.13
2023-01-05T04:40:08.406Z,100536.06
2023-01-05T04:42:37.556Z,100525.47
2023-01-05T04:45:06.142Z,100526.69
2023-01-05T04:47:33.827Z,100527.97
2023-01-05T04:50:01.670Z,100539.84
2023-01-05T04:52:29.416Z,100544.22
2023-01-05T04:54:57.042Z,100535.81
2023-01-05T04:57:24.763Z,100538.28
2023-01-05T04:59:53.722Z,100544.47
2023-01-05T05:02:21.646Z,100539.91
2023-01-05T05:04:49.455Z,100557.72
2023-01-05T05:07:17.070Z,100560.84
2023-01-05T05:09:44.935Z,100570.16
2023-01-05T05:12:13.452Z,100561.13
2023-01-05T05:14:41.191Z,100562.00
2023-01-05T05:17:10.132Z,100568.03
2023-01-05T05:19:37.695Z,100568.63
2023-01-05T05:22:05.523Z,100576.66
2023-01-05T05:24:33.366Z,100582.25
2023-01-05T05:27:01.443Z,100575.78
2023-01-05T05:29:29.134Z,100580.16
2023-01-05T05:31:56.945Z,100581.84
2023-01-05T05:34:25.871Z,100583.13
2023-01-05T05:36:53.496Z,100583.06
2023-01-05T05:39:22.204Z,100590.56
2023-01-05T05:41:49.811Z,100587.47
2023-01-05T05:44:17.472Z,100587.09
2023-01-05T05:46:45.308Z,100585.28
2023-01-05T05:49:12.927Z,100592.34
2023-01-05T05:51:41.887Z,100584.00
2023-01-05T05:54:09.730Z,100588.78
2023-01-05T05:56:37.324Z,100599.97
2023-01-05T05:59:04.911Z,100592.69
2023-01-05T06:01:32.632Z,100613.16
2023-01-05T06:04:00.408Z,100615.88
2023-01-05T06:06:27.996Z,100621.47
2023-01-05T06:08:56.943Z,100608.06
2023-01-05T06:11:24.605Z,100611.78
2023-01-05T06:13:52.514Z,100619.69
2023-01-05T06:16:20.228Z,100630.56
2023-01-05T06:18:47.874Z,100628.69
2023-01-05T06:21:15.503Z,100623.06
2023-01-05T06:23:43.506Z,100638.56
2023-01-05T06:26:12.453Z,100627.56
2023-01-05T06:28:40.121Z,100637.16
2023-01-05T06:31:07.978Z,100647.53
2023-01-05T06:33:35.704Z,100640.41
2023-01-05T06:36:03.415Z,100654.88
2023-01-05T06:38:31.014Z,100653.75
2023-01-05T06:40:59.320Z,100666.72
2023-01-05T06:43:28.307Z,100656.09
2023-01-05T06:45:55.996Z,100663.09
2023-01-05T06:48:23.705Z,100664.84
2023-01-05T06:50:51.390Z,100673.16
2023-01-05T06:53:19.532Z,100664.97
2023-01-05T06:55:47.327Z,100670.78
2023-01-05T06:58:15.011Z,100676.25
2023-01-05T07:00:44.156Z,100684.34
2023-01-05T07:03:14.329Z,100685.00
2023-01-05T07:05:42.283Z,100683.25
2023-01-05T07:08:09.983Z,100685.56
2023-01-05T07:10:37.631Z,100685.44
2023-01-05T07:13:05.265Z,100687.75
2023-01-05T07:15:32.873Z,100694.22
2023-01-05T07:18:01.781Z,100698.69
2023-01-05T07:20:29.581Z,100703.84
2023-01-05T07:22:57.358Z,100706.63
2023-01-05T07:25:31.095Z,100707.19
2023-01-05T07:27:58.889Z,100718.00
2023-01-05T07:30:26.625Z,100718.78
2023-01-05T07:32:58.704Z,100717.59
2023-01-05T07:35:28.228Z,100725.13
2023-01-05T07:37:56.862Z,100730.59
2023-01-05T07:40:24.675Z,100731.91
2023-01-05T07:42:53.540Z,100735.19
2023-01-05T07:45:21.981Z,100735.94
2023-01-05T07:47:49.692Z,100735.00
2023-01-05T07:50:17.387Z,100744.63
2023-01-05T07:52:46.417Z,100741.00
2023-01-05T07:55:14.317Z,100748.28
2023-01-05T07:57:42.076Z,100750.78
2023-01-05T08:00:11.800Z,100753.94
2023-01-05T08:02:39.567Z,100760.84
2023-01-05T08:05:07.826Z,100770.50
2023-01-05T08:07:36.118Z,100763.81
2023-01-05T08:10:23.577Z,100763.91
2023-01-05T08:13:08.790Z,100768.16
2023-01-05T08:15:36.534Z,100770.41
2023-01-05T08:18:04.409Z,100772.44
2023-01-05T08:20:31.993Z,100781.88
2023-01-05T08:22:59.585Z,100774.63
2023-01-05T08:25:28.874Z,100779.38
2023-01-05T08:27:56.552Z,100787.56
2023-01-05T08:30:24.227Z,100794.06
2023-01-05T08:32:51.885Z,100784.75
2023-01-05T08:35:19.495Z,100790.88
2023-01-05T08:37:47.271Z,100789.66
2023-01-05T08:40:15.097Z,100799.94
2023-01-05T08:42:47.973Z,100783.53
2023-01-05T08:45:16.120Z,100806.75
2023-01-05T08:47:44.207Z,100813.38
2023-01-05T08:50:12.317Z,100815.25
2023-01-05T08:52:40.657Z,100817.75
2023-01-05T08:55:09.036Z,100819.31
2023-01-05T08:57:36.718Z,100825.75
2023-01-05T09:00:09.493Z,100829.75
2023-01-05T09:02:37.601Z,100833.47
2023-01-05T09:05:06.062Z,100843.66
2023-01-05T09:07:33.724Z,100836.75
2023-01-05T09:10:01.461Z,100843.75
2023-01-05T09:12:32.992Z,100845.97
2023-01-05T09:15:01.040Z,100833.31
2023-01-05T09:17:30.022Z,100844.06
2023-01-05T09:19:57.813Z,100855.66
2023-01-05T09:22:25.591Z,100852.41
2023-01-05T09:24:53.191Z,100863.06
2023-01-05T09:27:20.838Z,100869.00
2023-01-05T09:29:48.507Z,100878.41
2023-01-05T09:32:16.059Z,100875.72
2023-01-05T09:34:45.049Z,100880.78
2023-01-05T09:37:12.733Z,100883.63
2023-01-05T09:39:40.377Z,100886.22
2023-01-05T09:42:14.496Z,100892.94
2023-01-05T09:44:46.074Z,100896.03
2023-01-05T09:47:18.158Z,100899.00
2023-01-05T09:49:49.995Z,100899.84
2023-01-05T09:52:21.790Z,100920.47
2023-01-05T09:54:49.935Z,100916.88
2023-01-05T09:57:20.325Z,100925.00
2023-01-05T09:59:50.655Z,100925.78
2023-01-05T10:02:25.189Z,100939.84
2023-01-05T10:04:55.196Z,100942.75
2023-01-05T10:07:32.909Z,100937.81
2023-01-05T10:10:07.189Z,100944.31
2023-01-05T10:13:01.559Z,100953.38
2023-01-05T10:15:34.016Z,100951.31
2023-01-05T10:18:03.947Z,100962.31
2023-01-05T10:20:50.899Z,100981.25
2023-01-05T10:23:32.505Z,100975.09
2023-01-05T10:26:09.027Z,100990.31
2023-01-05T10:28:44.591Z,100984.91
2023-01-05T10:31:23.338Z,100983.69
2023-01-05T10:33:57.841Z,100980.16
2023-01-05T10:37:07.495Z,100990.78
2023-01-05T10:39:56.450Z,101001.88
2023-01-05T10:42:37.805Z,100980.91
2023-01-05T10:45:10.386Z,100997.22
2023-01-05T10:47:41.572Z,101012.97
2023-01-05T10:50:29.786Z,101014.75
2023-01-05T10:52:59.972Z,101008.38
2023-01-05T10:55:31.109Z,101012.59
2023-01-05T10:57:59.479Z,101006.53
2023-01-05T11:00:42.219Z,101018.94
2023-01-05T11:03:15.804Z,101025.94
2023-01-05T11:05:45.690Z,101017.94
2023-01-05T11:08:20.702Z,101030.72
2023-01-05T11:10:53.979Z,101036.38
2023-01-05T11:13:32.430Z,101036.84
2023-01-05T11:16:06.508Z,101038.34
2023-01-05T11:18:37.826Z,101056.63
2023-01-05T11:21:11.852Z,101049.53
2023-01-05T11:23:43.992Z,101065.06
2023-01-05T11:26:24.428Z,101065.66
2023-01-05T11:29:13.069Z,101068.75
2023-01-05T11:31:48.717Z,101055.50
2023-01-05T11:34:38.797Z,101060.72
2023-01-05T11:37:14.332Z,101061.59
2023-01-05T11:39:50.377Z,101067.66
2023-01-05T11:42:25.282Z,101061.72
2023-01-05T11:44:55.934Z,101067.53
2023-01-05T11:47:28.962Z,101063.50
2023-01-05T11:50:09.245Z,101066.28
2023-01-05T11:52:40.969Z,101074.31
2023-01-05T11:55:31.778Z,101074.44
2023-01-05T11:58:14.692Z,101074.56
2023-01-05T12:01:11.283Z,101079.19
2023-01-05T12:03:59.222Z,101082.00
2023-01-05T12:06:46.712Z,101078.28
2023-01-05T12:09:22.275Z,101070.56
2023-01-05T12:12:06.904Z,101068.69
2023-01-05T12:14:54.182Z,101073.38
2023-01-05T12:17:31.272Z,101078.22
2023-01-05T12:20:23.287Z,101082.25
2023-01-05T12:23:17.272Z,101085.44
2023-01-05T12:25:57.224Z,101086.94
2023-01-05T12:28:42.810Z,101094.97
2023-01-05T12:34:52.388Z,101083.22
2023-01-05T12:37:31.582Z,101091.03
2023-01-05T12:40:24.639Z,101091.81
2023-01-05T12:43:00.921Z,101094.97
2023-01-05T12:45:52.345Z,101097.38
2023-01-05T12:48:24.851Z,101109.22
2023-01-05T12:51:00.257Z,101102.63
2023-01-05T12:53:39.037Z,101108.16
2023-01-05T12:56:18.573Z,101118.78
2023-01-05T12:58:54.284Z,101113.66
2023-01-05T13:01:28.644Z,101112.50
2023-01-05T13:04:00.142Z,101115.09
2023-01-05T13:06:32.293Z,101117.75
2023-01-05T13:09:05.569Z,101137.50
2023-01-05T13:11:39.743Z,101123.28
2023-01-05T13:14:15.044Z,101127.66
2023-01-05T13:16:48.059Z,101132.34
2023-01-05T13:19:20.657Z,101126.22
2023-01-05T13:21:49.014Z,101124.16
2023-01-05T13:24:23.007Z,101128.84
2023-01-05T13:26:51.116Z,101126.16
2023-01-05T13:29:24.785Z,101134.03
2023-01-05T13:32:18.563Z,101136.25
2023-01-05T13:35:14.667Z,101138.13
2023-01-05T13:37:55.789Z,101141.66
2023-01-05T13:40:46.183Z,101147.84
2023-01-05T13:43:46.434Z,101147.47
2023-01-05T13:46:31.501Z,101156.03
2023-01-05T13:49:21.245Z,101158.41
2023-01-05T13:51:55.191Z,101159.25
2023-01-05T13:54:48.969Z,101163.34
2023-01-05T13:57:24.763Z,101162.78
2023-01-05T14:00:04.721Z,101166.09
2023-01-05T14:02:38.731Z,101175.59
2023-01-05T14:05:16.484Z,101171.41
2023-01-05T14:07:44.434Z,101179.81
2023-01-05T14:10:22.586Z,101184.34
2023-01-05T14:12:54.031Z,101189.75
2023-01-05T14:15:40.694Z,101198.16
2023-01-05T14:18:09.240Z,101189.34
2023-01-05T14:20:47.217Z,101193.31
2023-01-05T14:23:52.440Z,101194.31
2023-01-05T14:26:58.540Z,101190.59
2023-01-05T14:30:00.327Z,101208.13
2023-01-05T14:32:29.844Z,101205.75
2023-01-05T14:35:01.007Z,101207.97
2023-01-05T14:37:36.464Z,101208.78
2023-01-05T14:40:21.298Z,101219.09
2023-01-05T14:42:50.666Z,101228.69
2023-01-05T14:45:24.825Z,101234.94
2023-01-05T14:47:56.319Z,101239.63
2023-01-05T14:50:32.386Z,101242.84
2023-01-05T14:53:04.955Z,101250.00
2023-01-05T14:55:39.523Z,101250.69
2023-01-05T14:58:14.265Z,101250.53
2023-01-05T15:00:46.234Z,101256.81
2023-01-05T15:03:21.011Z,101266.09
2023-01-05T15:05:58.911Z,101258.16
2023-01-05T15:09:09.517Z,101255.78
2023-01-05T15:11:52.051Z,101264.44
2023-01-05T15:14:40.137Z,101268.06
2023-01-05T15:17:22.797Z,101272.41
2023-01-05T15:20:09.483Z,101272.09
2023-01-05T15:22:56.572Z,101272.63
2023-01-05T15:26:07.615Z,101269.41
2023-01-05T15:29:02.474Z,101274.47
2023-01-05T15:31:36.296Z,101273.47
2023-01-05T15:34:20.535Z,101283.34
2023-01-05T15:36:54.654Z,101285.19
2023-01-05T15:39:31.565Z,101281.81
2023-01-05T15:42:06.345Z,101285.19
2023-01-05T15:44:40.030Z,101291.63
2023-01-05T15:47:10.565Z,101300.22
2023-01-05T15:49:39.842Z,101299.72
2023-01-05T15:52:18.814Z,101296.66
2023-01-05T15:54:58.294Z,101299.34
2023-01-05T15:57:27.369Z,101300.22
2023-01-05T15:59:55.224Z,101296.00
2023-01-05T16:02:25.390Z,101298.00
2023-01-05T16:05:11.376Z,101300.03
2023-01-05T16:07:43.710Z,101302.75
2023-01-05T16:10:20.474Z,101304.75
2023-01-05T16:13:02.076Z,101303.06
2023-01-05T16:15:34.033Z,101301.31
2023-01-05T16:18:03.321Z,101295.53
2023-01-05T16:20:31.326Z,101302.31
2023-01-05T16:23:08.749Z,101300.47
2023-01-05T16:25:41.831Z,101315.50
2023-01-05T16:28:17.480Z,101308.72
2023-01-05T16:30:46.915Z,101306.34
2023-01-05T16:33:27.528Z,101325.41
2023-01-05T16:36:08.990Z,101317.16
2023-01-05T16:38:37.302Z,101313.78
2023-01-05T16:41:09.285Z,101310.06
2023-01-05T16:43:44.127Z,101322.19
2023-01-05T16:46:35.131Z,101319.19
2023-01-05T16:49:32.819Z,101324.59
2023-01-05T16:52:01.962Z,101323.56
2023-01-05T16:54:37.100Z,101322.44
2023-01-05T16:57:28.916Z,101321.19
2023-01-05T16:59:59.816Z,101335.91
2023-01-05T17:02:45.381Z,101335.59
2023-01-05T17:05:16.039Z,101342.53
2023-01-05T17:07:46.703Z,101337.28
2023-01-05T17:10:19.390Z,101343.06
2023-01-05T17:12:55.704Z,101343.72
2023-01-05T17:15:29.459Z,101340.66
2023-01-05T17:17:57.905Z,101347.63
2023-01-05T17:20:29.214Z,101343.72
2023-01-05T17:22:57.205Z,101346.91
2023-01-05T17:25:30.508Z,101345.38
2023-01-05T17:27:58.166Z,101348.88
2023-01-05T17:30:27.243Z,101340.75
2023-01-05T17:32:55.160Z,101345.09
2023-01-05T17:35:22.860Z,101347.75
2023-01-05T17:37:50.524Z,101344.03
2023-01-05T17:40:20.542Z,101349.78
2023-01-05T17:42:48.294Z,101341.31
2023-01-05T17:45:17.915Z,101340.81
2023-01-05T17:47:47.188Z,101343.72
2023-01-05T17:50:17.356Z,101346.63
2023-01-05T17:52:45.383Z,101339.38
2023-01-05T17:55:13.832Z,101342.06
2023-01-05T17:57:42.264Z,101324.16
2023-01-05T18:00:13.355Z,101330.75
2023-01-05T18:02:41.606Z,101326.84
2023-01-05T18:05:12.223Z,101328.38
2023-01-05T18:07:40.937Z,101325.47
2023-01-05T18:10:11.600Z,101330.06
2023-01-05T18:15:08.204Z,101325.84
2023-01-05T18:20:13.603Z,101333.22
2023-01-05T18:22:43.167Z,101331.56
2023-01-05T18:25:12.559Z,101338.47
2023-01-05T18:27:41.332Z,101333.03
2023-01-05T18:30:12.363Z,101329.69
2023-01-05T18:32:40.773Z,101332.41
2023-01-05T18:35:11.116Z,101324.66
2023-01-05T18:37:39.319Z,101324.66
2023-01-05T18:40:08.413Z,101329.88
2023-01-05T18:42:37.077Z,101331.72
2023-01-05T18:45:18.725Z,101328.38
2023-01-05T18:47:57.091Z,101332.91
2023-01-05T18:50:26.692Z,101325.16
2023-01-05T18:52:54.459Z,101331.28
2023-01-05T18:55:22.084Z,101333.84
2023-01-05T18:57:49.790Z,101345.53
2023-01-05T19:00:17.828Z,101341.31
2023-01-05T19:02:45.492Z,101333.34
2023-01-05T19:05:13.202Z,101333.47
2023-01-05T19:07:42.189Z,101322.22
2023-01-05T19:10:10.288Z,101325.25
2023-01-05T19:12:37.961Z,101325.09
2023-01-05T19:15:06.384Z,101323.41
2023-01-05T19:17:34.457Z,101327.25
2023-01-05T19:20:02.940Z,101339.56
2023-01-05T19:22:30.945Z,101339.19
2023-01-05T19:25:00.232Z,101340.25
2023-01-05T19:27:28.421Z,101340.53
2023-01-05T19:29:56.063Z,101331.69
2023-01-05T19:32:23.762Z,101326.78
2023-01-05T19:34:51.410Z,101324.91
2023-01-05T19:37:19.183Z,101328.28
2023-01-05T19:39:46.811Z,101319.50
2023-01-05T19:42:16.419Z,101322.25
2023-01-05T19:44:44.907Z,101311.69
2023-01-05T19:47:12.539Z,101311.91
2023-01-05T19:49:40.812Z,101314.09
2023-01-05T19:52:08.541Z,101305.66
2023-01-05T19:54:38.957Z,101308.00
2023-01-05T19:57:06.755Z,101315.75
2023-01-05T19:59:36.231Z,101312.88
2023-01-05T20:02:06.479Z,101308.97
2023-01-05T20:04:34.583Z,101311.31
2023-01-05T20:07:04.202Z,101310.50
2023-01-05T20:09:32.620Z,101311.00
2023-01-05T20:12:13.292Z,101312.69
2023-01-05T20:14:43.771Z,101310.81
2023-01-05T20:17:13.179Z,101321.16
2023-01-05T20:19:41.656Z,101315.59
2023-01-05T20:22:14.133Z,101307.47
2023-01-05T20:24:43.274Z,101311.84
2023-01-05T20:27:13.223Z,101303.72
2023-01-05T20:29:41.328Z,101301.03
2023-01-05T20:32:13.665Z,101293.09
2023-01-05T20:34:43.452Z,101294.66
2023-01-05T20:37:11.533Z,101303.13
2023-01-05T20:39:40.342Z,101295.19
2023-01-05T20:42:10.532Z,101300.13
2023-01-05T20:44:40.197Z,101292.34
2023-01-05T20:47:13.567Z,101294.22
2023-01-05T20:49:45.116Z,101302.84
2023-01-05T20:52:14.322Z,101299.25
2023-01-05T20:54:42.858Z,101298.13
2023-01-05T20:57:10.888Z,101298.50
2023-01-05T20:59:40.611Z,101294.63
2023-01-05T21:02:22.920Z,101300.19
2023-01-05T21:04:52.740Z,101294.78
2023-01-05T21:07:21.074Z,101293.84
2023-01-05T21:09:50.576Z,101291.47
2023-01-05T21:12:18.920Z,101291.13
2023-01-05T21:14:46.531Z,101302.66
2023-01-05T21:17:15.478Z,101298.09
2023-01-05T21:19:43.406Z,101305.34
2023-01-05T21:22:11.336Z,101304.66
2023-01-05T21:24:39.054Z,101302.97
2023-01-05T21:27:06.611Z,101297.19
2023-01-05T21:29:34.897Z,101298.69
2023-01-05T21:32:02.548Z,101298.88
2023-01-05T21:34:31.635Z,101302.91
2023-01-05T21:36:59.264Z,101298.69
2023-01-05T21:39:28.369Z,101300.00
2023-01-05T21:42:13.623Z,101294.63
2023-01-05T21:44:41.485Z,101301.91
2023-01-05T21:47:09.681Z,101298.50
2023-01-05T21:49:38.649Z,101294.78
2023-01-05T21:52:24.695Z,101290.25
2023-01-05T21:55:09.986Z,101290.56
2023-01-05T21:57:37.597Z,101294.78
2023-01-05T22:00:06.737Z,101289.38
2023-01-05T22:02:35.067Z,101285.16
2023-01-05T22:05:04.356Z,101285.97
2023-01-05T22:07:31.967Z,101285.81
2023-01-05T22:09:59.595Z,101285.63
2023-01-05T22:12:27.202Z,101280.88
2023-01-05T22:14:54.841Z,101275.47
2023-01-05T22:17:23.200Z,101283.41
2023-01-05T22:19:53.194Z,101272.59
2023-01-05T22:22:22.772Z,101275.09
2023-01-05T22:24:50.457Z,101269.69
2023-01-05T22:27:19.362Z,101282.22
2023-01-05T22:29:46.941Z,101272.59
2023-01-05T22:32:15.028Z,101273.09
2023-01-05T22:34:44.241Z,101276.78
2023-01-05T22:37:11.941Z,101265.50
2023-01-05T22:39:40.863Z,101264.97
2023-01-05T22:42:08.491Z,101267.50
2023-01-05T22:44:36.104Z,101266.09
2023-01-05T22:47:03.666Z,101266.28
2023-01-05T22:49:31.473Z,101265.28
2023-01-05T22:51:59.493Z,101271.50
2023-01-05T22:54:27.109Z,101250.56
2023-01-05T22:56:56.039Z,101265.28
2023-01-05T22:59:23.696Z,101251.75
2023-01-05T23:01:51.678Z,101250.25
2023-01-05T23:04:19.321Z,101251.75
2023-01-05T23:06:46.988Z,101251.38
2023-01-05T23:09:17.297Z,101247.66
2023-01-05T23:11:46.798Z,101241.22
2023-01-05T23:14:18.266Z,101239.16
2023-01-05T23:16:46.411Z,101237.47
2023-01-05T23:19:14.989Z,101237.38
2023-01-05T23:21:42.768Z,101238.75
2023-01-05T23:24:10.808Z,101226.34
2023-01-05T23:26:38.644Z,101215.53
2023-01-05T23:29:06.653Z,101218.31
2023-01-05T23:31:35.775Z,101221.38
2023-01-05T23:34:03.651Z,101220.41
2023-01-05T23:36:31.988Z,101215.75
2023-01-05T23:39:00.044Z,101221.16
2023-01-05T23:41:27.660Z,101209.47
2023-01-05T23:43:55.294Z,101205.63
2023-01-05T23:46:24.431Z,101199.91
2023-01-05T23:48:53.684Z,101196.69
2023-01-05T23:51:23.460Z,101199.28
2023-01-05T23:53:52.886Z,101190.97
2023-01-05T23:56:21.963Z,101186.97
2023-01-05T23:58:54.710Z,101185.09
